sensor_id;sensor_type;location;lat;lon;timestamp;P1;durP1;ratioP1;P2;durP2;ratioP2
982;SDS011;480;48.124;11.578;2023-07-02T00:02:08;2.20;;;1.97;;
982;SDS011;480;48.124;11.578;2023-07-02T00:04:35;2.90;;;2.33;;
982;SDS011;480;48.124;11.578;2023-07-02T00:07:02;3.77;;;2.87;;
982;SDS011;480;48.124;11.578;2023-07-02T00:09:31;2.33;;;2.13;;
982;SDS011;480;48.124;11.578;2023-07-02T00:11:58;2.27;;;2.10;;
982;SDS011;480;48.124;11.578;2023-07-02T00:14:25;3.97;;;2.23;;
982;SDS011;480;48.124;11.578;2023-07-02T00:16:52;2.50;;;2.30;;
982;SDS011;480;48.124;11.578;2023-07-02T00:19:19;3.33;;;2.50;;
982;SDS011;480;48.124;11.578;2023-07-02T00:21:46;2.53;;;1.90;;
982;SDS011;480;48.124;11.578;2023-07-02T00:24:13;2.97;;;2.50;;
982;SDS011;480;48.124;11.578;2023-07-02T00:26:42;2.37;;;2.27;;
982;SDS011;480;48.124;11.578;2023-07-02T00:29:09;2.27;;;2.07;;
982;SDS011;480;48.124;11.578;2023-07-02T00:31:36;2.70;;;2.50;;
982;SDS011;480;48.124;11.578;2023-07-02T00:34:03;3.10;;;2.67;;
982;SDS011;480;48.124;11.578;2023-07-02T00:36:31;2.73;;;2.50;;
982;SDS011;480;48.124;11.578;2023-07-02T00:38:58;2.87;;;2.67;;
982;SDS011;480;48.124;11.578;2023-07-02T00:41:26;4.70;;;2.00;;
982;SDS011;480;48.124;11.578;2023-07-02T00:43:54;2.73;;;2.20;;
982;SDS011;480;48.124;11.578;2023-07-02T00:46:22;2.53;;;2.33;;
982;SDS011;480;48.124;11.578;2023-07-02T00:48:50;2.80;;;2.57;;
982;SDS011;480;48.124;11.578;2023-07-02T00:51:19;2.57;;;2.37;;
982;SDS011;480;48.124;11.578;2023-07-02T00:53:47;2.30;;;2.10;;
982;SDS011;480;48.124;11.578;2023-07-02T00:56:15;3.63;;;1.90;;
982;SDS011;480;48.124;11.578;2023-07-02T00:58:43;2.23;;;2.13;;
982;SDS011;480;48.124;11.578;2023-07-02T01:01:15;1.90;;;1.80;;
982;SDS011;480;48.124;11.578;2023-07-02T01:03:52;2.40;;;2.07;;
982;SDS011;480;48.124;11.578;2023-07-02T01:06:22;1.50;;;1.40;;
982;SDS011;480;48.124;11.578;2023-07-02T01:08:54;2.33;;;1.77;;
982;SDS011;480;48.124;11.578;2023-07-02T01:11:23;1.63;;;1.53;;
982;SDS011;480;48.124;11.578;2023-07-02T01:13:54;1.50;;;1.40;;
982;SDS011;480;48.124;11.578;2023-07-02T01:16:27;2.27;;;2.07;;
982;SDS011;480;48.124;11.578;2023-07-02T01:18:56;2.13;;;1.80;;
982;SDS011;480;48.124;11.578;2023-07-02T01:21:24;1.97;;;1.83;;
982;SDS011;480;48.124;11.578;2023-07-02T01:23:52;2.00;;;1.63;;
982;SDS011;480;48.124;11.578;2023-07-02T01:26:20;1.63;;;1.53;;
982;SDS011;480;48.124;11.578;2023-07-02T01:28:47;1.40;;;1.30;;
982;SDS011;480;48.124;11.578;2023-07-02T01:31:14;1.80;;;1.60;;
982;SDS011;480;48.124;11.578;2023-07-02T01:33:41;1.80;;;1.70;;
982;SDS011;480;48.124;11.578;2023-07-02T01:36:08;2.20;;;1.50;;
982;SDS011;480;48.124;11.578;2023-07-02T01:38:36;1.27;;;1.10;;
982;SDS011;480;48.124;11.578;2023-07-02T01:41:03;1.90;;;1.77;;
982;SDS011;480;48.124;11.578;2023-07-02T01:43:30;2.13;;;2.03;;
982;SDS011;480;48.124;11.578;2023-07-02T01:45:57;1.77;;;1.67;;
982;SDS011;480;48.124;11.578;2023-07-02T01:48:26;1.80;;;1.27;;
982;SDS011;480;48.124;11.578;2023-07-02T01:50:53;1.53;;;1.30;;
982;SDS011;480;48.124;11.578;2023-07-02T01:53:20;1.80;;;1.70;;
982;SDS011;480;48.124;11.578;2023-07-02T01:55:48;1.90;;;1.70;;
982;SDS011;480;48.124;11.578;2023-07-02T01:58:15;2.00;;;1.50;;
982;SDS011;480;48.124;11.578;2023-07-02T02:00:42;2.10;;;1.63;;
982;SDS011;480;48.124;11.578;2023-07-02T02:03:09;2.70;;;1.57;;
982;SDS011;480;48.124;11.578;2023-07-02T02:05:36;1.90;;;1.70;;
982;SDS011;480;48.124;11.578;2023-07-02T02:08:03;1.70;;;1.60;;
982;SDS011;480;48.124;11.578;2023-07-02T02:10:30;1.30;;;1.20;;
982;SDS011;480;48.124;11.578;2023-07-02T02:12:58;1.43;;;1.33;;
982;SDS011;480;48.124;11.578;2023-07-02T02:15:25;1.50;;;1.40;;
982;SDS011;480;48.124;11.578;2023-07-02T02:17:52;2.10;;;1.70;;
982;SDS011;480;48.124;11.578;2023-07-02T02:20:19;1.63;;;1.53;;
982;SDS011;480;48.124;11.578;2023-07-02T02:22:47;1.93;;;1.60;;
982;SDS011;480;48.124;11.578;2023-07-02T02:25:14;2.13;;;1.60;;
982;SDS011;480;48.124;11.578;2023-07-02T02:27:41;1.63;;;1.53;;
982;SDS011;480;48.124;11.578;2023-07-02T02:30:11;1.70;;;1.60;;
982;SDS011;480;48.124;11.578;2023-07-02T02:32:38;1.87;;;1.77;;
982;SDS011;480;48.124;11.578;2023-07-02T02:35:05;1.43;;;1.20;;
982;SDS011;480;48.124;11.578;2023-07-02T02:37:33;1.80;;;1.70;;
982;SDS011;480;48.124;11.578;2023-07-02T02:40:01;1.40;;;1.30;;
982;SDS011;480;48.124;11.578;2023-07-02T02:42:28;1.57;;;1.47;;
982;SDS011;480;48.124;11.578;2023-07-02T02:44:55;10.27;;;1.90;;
982;SDS011;480;48.124;11.578;2023-07-02T02:47:23;2.40;;;1.50;;
982;SDS011;480;48.124;11.578;2023-07-02T02:49:50;3.67;;;1.97;;
982;SDS011;480;48.124;11.578;2023-07-02T02:52:17;1.80;;;1.70;;
982;SDS011;480;48.124;11.578;2023-07-02T02:54:45;1.53;;;1.30;;
982;SDS011;480;48.124;11.578;2023-07-02T02:57:12;1.93;;;1.80;;
982;SDS011;480;48.124;11.578;2023-07-02T02:59:40;1.37;;;1.27;;
982;SDS011;480;48.124;11.578;2023-07-02T03:02:07;1.90;;;1.80;;
982;SDS011;480;48.124;11.578;2023-07-02T03:04:35;1.77;;;1.67;;
982;SDS011;480;48.124;11.578;2023-07-02T03:07:04;2.40;;;2.00;;
982;SDS011;480;48.124;11.578;2023-07-02T03:09:32;2.27;;;2.10;;
982;SDS011;480;48.124;11.578;2023-07-02T03:11:59;1.83;;;1.60;;
982;SDS011;480;48.124;11.578;2023-07-02T03:14:26;1.80;;;1.70;;
982;SDS011;480;48.124;11.578;2023-07-02T03:16:53;1.83;;;1.73;;
982;SDS011;480;48.124;11.578;2023-07-02T03:19:20;3.80;;;1.83;;
982;SDS011;480;48.124;11.578;2023-07-02T03:21:50;2.17;;;1.97;;
982;SDS011;480;48.124;11.578;2023-07-02T03:24:17;1.70;;;1.60;;
982;SDS011;480;48.124;11.578;2023-07-02T03:26:44;1.70;;;1.60;;
982;SDS011;480;48.124;11.578;2023-07-02T03:29:11;2.40;;;2.20;;
982;SDS011;480;48.124;11.578;2023-07-02T03:31:38;1.60;;;1.50;;
982;SDS011;480;48.124;11.578;2023-07-02T03:34:06;3.30;;;2.60;;
982;SDS011;480;48.124;11.578;2023-07-02T03:36:34;3.07;;;2.40;;
982;SDS011;480;48.124;11.578;2023-07-02T03:39:02;2.27;;;2.07;;
982;SDS011;480;48.124;11.578;2023-07-02T03:41:30;2.93;;;2.27;;
982;SDS011;480;48.124;11.578;2023-07-02T03:43:56;2.70;;;2.50;;
982;SDS011;480;48.124;11.578;2023-07-02T03:46:23;2.20;;;2.00;;
982;SDS011;480;48.124;11.578;2023-07-02T03:48:50;2.70;;;2.50;;
982;SDS011;480;48.124;11.578;2023-07-02T03:51:17;4.90;;;2.60;;
982;SDS011;480;48.124;11.578;2023-07-02T03:53:44;3.30;;;2.90;;
982;SDS011;480;48.124;11.578;2023-07-02T03:56:13;4.60;;;2.83;;
982;SDS011;480;48.124;11.578;2023-07-02T03:58:40;4.37;;;2.90;;
982;SDS011;480;48.124;11.578;2023-07-02T04:01:07;2.97;;;2.70;;
982;SDS011;480;48.124;11.578;2023-07-02T04:03:34;2.67;;;2.47;;
982;SDS011;480;48.124;11.578;2023-07-02T04:06:01;2.60;;;2.40;;
982;SDS011;480;48.124;11.578;2023-07-02T04:08:30;2.57;;;2.37;;
982;SDS011;480;48.124;11.578;2023-07-02T04:10:57;2.73;;;2.37;;
982;SDS011;480;48.124;11.578;2023-07-02T04:13:26;3.33;;;3.03;;
982;SDS011;480;48.124;11.578;2023-07-02T04:15:53;4.30;;;2.53;;
982;SDS011;480;48.124;11.578;2023-07-02T04:18:20;2.90;;;2.70;;
982;SDS011;480;48.124;11.578;2023-07-02T04:20:47;4.47;;;3.00;;
982;SDS011;480;48.124;11.578;2023-07-02T04:23:14;2.60;;;2.40;;
982;SDS011;480;48.124;11.578;2023-07-02T04:25:41;5.73;;;3.50;;
982;SDS011;480;48.124;11.578;2023-07-02T04:28:08;2.70;;;2.30;;
982;SDS011;480;48.124;11.578;2023-07-02T04:30:36;3.17;;;2.87;;
982;SDS011;480;48.124;11.578;2023-07-02T04:33:03;3.73;;;2.10;;
982;SDS011;480;48.124;11.578;2023-07-02T04:35:31;3.73;;;2.70;;
982;SDS011;480;48.124;11.578;2023-07-02T04:37:59;2.90;;;2.70;;
982;SDS011;480;48.124;11.578;2023-07-02T04:40:26;2.90;;;2.60;;
982;SDS011;480;48.124;11.578;2023-07-02T04:42:53;4.80;;;3.70;;
982;SDS011;480;48.124;11.578;2023-07-02T04:45:23;2.57;;;2.37;;
982;SDS011;480;48.124;11.578;2023-07-02T04:47:52;3.93;;;3.63;;
982;SDS011;480;48.124;11.578;2023-07-02T04:50:19;4.13;;;2.80;;
982;SDS011;480;48.124;11.578;2023-07-02T04:52:46;3.43;;;3.10;;
982;SDS011;480;48.124;11.578;2023-07-02T04:55:13;4.23;;;2.90;;
982;SDS011;480;48.124;11.578;2023-07-02T04:57:40;3.20;;;3.00;;
982;SDS011;480;48.124;11.578;2023-07-02T05:00:09;5.77;;;2.93;;
982;SDS011;480;48.124;11.578;2023-07-02T05:02:38;3.10;;;2.90;;
982;SDS011;480;48.124;11.578;2023-07-02T05:05:07;3.93;;;2.90;;
982;SDS011;480;48.124;11.578;2023-07-02T05:07:34;3.27;;;2.97;;
982;SDS011;480;48.124;11.578;2023-07-02T05:10:01;2.70;;;2.50;;
982;SDS011;480;48.124;11.578;2023-07-02T05:12:28;4.40;;;2.60;;
982;SDS011;480;48.124;11.578;2023-07-02T05:14:55;3.00;;;2.80;;
982;SDS011;480;48.124;11.578;2023-07-02T05:17:22;3.70;;;3.23;;
982;SDS011;480;48.124;11.578;2023-07-02T05:19:49;4.00;;;3.00;;
982;SDS011;480;48.124;11.578;2023-07-02T05:22:18;4.00;;;3.37;;
982;SDS011;480;48.124;11.578;2023-07-02T05:24:45;3.43;;;3.00;;
982;SDS011;480;48.124;11.578;2023-07-02T05:27:12;3.13;;;2.93;;
982;SDS011;480;48.124;11.578;2023-07-02T05:29:39;3.90;;;3.60;;
982;SDS011;480;48.124;11.578;2023-07-02T05:32:06;3.47;;;3.17;;
982;SDS011;480;48.124;11.578;2023-07-02T05:34:33;3.40;;;3.00;;
982;SDS011;480;48.124;11.578;2023-07-02T05:37:00;3.17;;;2.90;;
982;SDS011;480;48.124;11.578;2023-07-02T05:39:28;3.20;;;3.00;;
982;SDS011;480;48.124;11.578;2023-07-02T05:41:56;2.80;;;2.60;;
982;SDS011;480;48.124;11.578;2023-07-02T05:44:23;4.13;;;3.13;;
982;SDS011;480;48.124;11.578;2023-07-02T05:46:49;3.43;;;3.13;;
982;SDS011;480;48.124;11.578;2023-07-02T05:49:16;3.43;;;3.13;;
982;SDS011;480;48.124;11.578;2023-07-02T05:51:43;3.30;;;2.73;;
982;SDS011;480;48.124;11.578;2023-07-02T05:54:10;3.67;;;3.30;;
982;SDS011;480;48.124;11.578;2023-07-02T05:56:39;6.50;;;3.30;;
982;SDS011;480;48.124;11.578;2023-07-02T05:59:08;3.47;;;3.17;;
982;SDS011;480;48.124;11.578;2023-07-02T06:01:36;2.93;;;2.70;;
982;SDS011;480;48.124;11.578;2023-07-02T06:04:03;3.13;;;2.83;;
982;SDS011;480;48.124;11.578;2023-07-02T06:06:30;3.67;;;2.90;;
982;SDS011;480;48.124;11.578;2023-07-02T06:08:57;3.20;;;2.90;;
982;SDS011;480;48.124;11.578;2023-07-02T06:11:24;3.27;;;3.00;;
982;SDS011;480;48.124;11.578;2023-07-02T06:13:52;3.50;;;3.20;;
982;SDS011;480;48.124;11.578;2023-07-02T06:16:20;3.07;;;2.77;;
982;SDS011;480;48.124;11.578;2023-07-02T06:18:47;3.10;;;2.80;;
982;SDS011;480;48.124;11.578;2023-07-02T06:21:14;4.53;;;3.23;;
982;SDS011;480;48.124;11.578;2023-07-02T06:23:41;3.30;;;3.00;;
982;SDS011;480;48.124;11.578;2023-07-02T06:26:09;3.40;;;2.70;;
982;SDS011;480;48.124;11.578;2023-07-02T06:28:36;2.67;;;2.47;;
982;SDS011;480;48.124;11.578;2023-07-02T06:31:05;2.90;;;2.70;;
982;SDS011;480;48.124;11.578;2023-07-02T06:33:33;6.50;;;2.83;;
982;SDS011;480;48.124;11.578;2023-07-02T06:35:59;3.60;;;3.30;;
982;SDS011;480;48.124;11.578;2023-07-02T06:38:26;4.33;;;3.00;;
982;SDS011;480;48.124;11.578;2023-07-02T06:40:53;3.23;;;2.93;;
982;SDS011;480;48.124;11.578;2023-07-02T06:43:20;3.00;;;2.80;;
982;SDS011;480;48.124;11.578;2023-07-02T06:45:47;3.37;;;3.10;;
982;SDS011;480;48.124;11.578;2023-07-02T06:48:15;4.67;;;3.70;;
982;SDS011;480;48.124;11.578;2023-07-02T06:50:46;3.20;;;2.87;;
982;SDS011;480;48.124;11.578;2023-07-02T06:53:13;3.17;;;2.90;;
982;SDS011;480;48.124;11.578;2023-07-02T06:55:40;3.47;;;3.17;;
982;SDS011;480;48.124;11.578;2023-07-02T06:58:08;3.47;;;2.70;;
982;SDS011;480;48.124;11.578;2023-07-02T07:00:35;2.67;;;2.47;;
982;SDS011;480;48.124;11.578;2023-07-02T07:03:02;3.87;;;3.17;;
982;SDS011;480;48.124;11.578;2023-07-02T07:05:30;3.47;;;3.10;;
982;SDS011;480;48.124;11.578;2023-07-02T07:07:58;3.50;;;3.20;;
982;SDS011;480;48.124;11.578;2023-07-02T07:10:25;3.50;;;3.20;;
982;SDS011;480;48.124;11.578;2023-07-02T07:12:52;3.50;;;3.20;;
982;SDS011;480;48.124;11.578;2023-07-02T07:15:19;4.13;;;3.70;;
982;SDS011;480;48.124;11.578;2023-07-02T07:17:46;3.90;;;3.50;;
982;SDS011;480;48.124;11.578;2023-07-02T07:20:13;4.00;;;3.60;;
982;SDS011;480;48.124;11.578;2023-07-02T07:22:42;4.77;;;3.87;;
982;SDS011;480;48.124;11.578;2023-07-02T07:25:09;4.50;;;3.90;;
982;SDS011;480;48.124;11.578;2023-07-02T07:27:36;4.70;;;3.53;;
982;SDS011;480;48.124;11.578;2023-07-02T07:30:04;4.07;;;3.40;;
982;SDS011;480;48.124;11.578;2023-07-02T07:32:32;3.20;;;2.90;;
982;SDS011;480;48.124;11.578;2023-07-02T07:34:59;4.10;;;3.70;;
982;SDS011;480;48.124;11.578;2023-07-02T07:37:26;6.00;;;3.53;;
982;SDS011;480;48.124;11.578;2023-07-02T07:39:54;5.63;;;4.00;;
982;SDS011;480;48.124;11.578;2023-07-02T07:42:21;3.40;;;2.97;;
982;SDS011;480;48.124;11.578;2023-07-02T07:44:48;5.03;;;4.03;;
982;SDS011;480;48.124;11.578;2023-07-02T07:47:15;4.23;;;3.30;;
982;SDS011;480;48.124;11.578;2023-07-02T07:49:42;3.53;;;3.33;;
982;SDS011;480;48.124;11.578;2023-07-02T07:52:09;3.87;;;3.47;;
982;SDS011;480;48.124;11.578;2023-07-02T07:54:36;3.73;;;3.37;;
982;SDS011;480;48.124;11.578;2023-07-02T07:57:05;3.73;;;3.37;;
982;SDS011;480;48.124;11.578;2023-07-02T07:59:33;4.10;;;3.63;;
982;SDS011;480;48.124;11.578;2023-07-02T08:02:00;3.90;;;3.17;;
982;SDS011;480;48.124;11.578;2023-07-02T08:04:26;4.43;;;4.00;;
982;SDS011;480;48.124;11.578;2023-07-02T08:06:53;3.87;;;3.50;;
982;SDS011;480;48.124;11.578;2023-07-02T08:09:22;3.77;;;3.47;;
982;SDS011;480;48.124;11.578;2023-07-02T08:11:49;5.60;;;3.10;;
982;SDS011;480;48.124;11.578;2023-07-02T08:14:18;4.20;;;3.77;;
982;SDS011;480;48.124;11.578;2023-07-02T08:16:44;4.03;;;3.63;;
982;SDS011;480;48.124;11.578;2023-07-02T08:19:12;3.70;;;3.40;;
982;SDS011;480;48.124;11.578;2023-07-02T08:21:39;5.63;;;3.70;;
982;SDS011;480;48.124;11.578;2023-07-02T08:24:06;3.67;;;3.13;;
982;SDS011;480;48.124;11.578;2023-07-02T08:26:33;3.20;;;2.97;;
982;SDS011;480;48.124;11.578;2023-07-02T08:29:00;2.80;;;2.60;;
982;SDS011;480;48.124;11.578;2023-07-02T08:31:28;3.07;;;2.77;;
982;SDS011;480;48.124;11.578;2023-07-02T08:33:55;2.70;;;2.50;;
982;SDS011;480;48.124;11.578;2023-07-02T08:36:22;3.27;;;2.93;;
982;SDS011;480;48.124;11.578;2023-07-02T08:38:49;3.13;;;2.87;;
982;SDS011;480;48.124;11.578;2023-07-02T08:41:16;3.37;;;3.07;;
982;SDS011;480;48.124;11.578;2023-07-02T08:43:43;2.50;;;2.20;;
982;SDS011;480;48.124;11.578;2023-07-02T08:46:11;4.53;;;2.70;;
982;SDS011;480;48.124;11.578;2023-07-02T08:48:40;3.37;;;2.90;;
982;SDS011;480;48.124;11.578;2023-07-02T08:51:07;3.57;;;3.27;;
982;SDS011;480;48.124;11.578;2023-07-02T08:53:34;3.13;;;2.83;;
982;SDS011;480;48.124;11.578;2023-07-02T08:56:06;3.03;;;2.83;;
982;SDS011;480;48.124;11.578;2023-07-02T08:58:33;3.70;;;3.40;;
982;SDS011;480;48.124;11.578;2023-07-02T09:01:04;2.63;;;2.43;;
982;SDS011;480;48.124;11.578;2023-07-02T09:03:32;2.87;;;2.60;;
982;SDS011;480;48.124;11.578;2023-07-02T09:06:01;2.60;;;2.30;;
982;SDS011;480;48.124;11.578;2023-07-02T09:08:28;2.37;;;2.17;;
982;SDS011;480;48.124;11.578;2023-07-02T09:11:04;2.70;;;2.50;;
982;SDS011;480;48.124;11.578;2023-07-02T09:13:41;3.47;;;2.70;;
982;SDS011;480;48.124;11.578;2023-07-02T09:16:19;3.23;;;3.03;;
982;SDS011;480;48.124;11.578;2023-07-02T09:18:54;2.50;;;2.30;;
982;SDS011;480;48.124;11.578;2023-07-02T09:21:27;2.50;;;2.30;;
982;SDS011;480;48.124;11.578;2023-07-02T09:23:54;2.70;;;2.20;;
982;SDS011;480;48.124;11.578;2023-07-02T09:26:22;2.43;;;2.23;;
982;SDS011;480;48.124;11.578;2023-07-02T09:28:49;3.60;;;2.80;;
982;SDS011;480;48.124;11.578;2023-07-02T09:31:16;2.70;;;2.43;;
982;SDS011;480;48.124;11.578;2023-07-02T09:33:43;2.83;;;2.57;;
982;SDS011;480;48.124;11.578;2023-07-02T09:36:11;2.70;;;2.50;;
982;SDS011;480;48.124;11.578;2023-07-02T09:38:40;2.77;;;2.57;;
982;SDS011;480;48.124;11.578;2023-07-02T09:41:08;2.73;;;2.53;;
982;SDS011;480;48.124;11.578;2023-07-02T09:43:35;3.77;;;3.27;;
982;SDS011;480;48.124;11.578;2023-07-02T09:46:03;3.47;;;2.97;;
982;SDS011;480;48.124;11.578;2023-07-02T09:48:32;2.70;;;2.50;;
982;SDS011;480;48.124;11.578;2023-07-02T09:51:02;2.83;;;2.50;;
982;SDS011;480;48.124;11.578;2023-07-02T09:53:30;3.07;;;2.87;;
982;SDS011;480;48.124;11.578;2023-07-02T09:55:59;4.57;;;4.20;;
982;SDS011;480;48.124;11.578;2023-07-02T09:58:26;2.90;;;2.60;;
982;SDS011;480;48.124;11.578;2023-07-02T10:00:53;4.60;;;3.07;;
982;SDS011;480;48.124;11.578;2023-07-02T10:03:29;2.70;;;2.50;;
982;SDS011;480;48.124;11.578;2023-07-02T10:06:03;3.53;;;2.70;;
982;SDS011;480;48.124;11.578;2023-07-02T10:08:31;3.00;;;2.70;;
982;SDS011;480;48.124;11.578;2023-07-02T10:11:09;2.70;;;2.50;;
982;SDS011;480;48.124;11.578;2023-07-02T10:13:38;3.23;;;2.60;;
982;SDS011;480;48.124;11.578;2023-07-02T10:16:06;2.87;;;2.67;;
982;SDS011;480;48.124;11.578;2023-07-02T10:18:33;4.30;;;3.60;;
982;SDS011;480;48.124;11.578;2023-07-02T10:21:12;5.37;;;4.27;;
982;SDS011;480;48.124;11.578;2023-07-02T10:23:40;3.73;;;3.43;;
982;SDS011;480;48.124;11.578;2023-07-02T10:26:13;4.10;;;3.80;;
982;SDS011;480;48.124;11.578;2023-07-02T10:28:41;4.33;;;3.90;;
982;SDS011;480;48.124;11.578;2023-07-02T10:31:19;4.50;;;4.10;;
982;SDS011;480;48.124;11.578;2023-07-02T10:33:46;4.10;;;3.73;;
982;SDS011;480;48.124;11.578;2023-07-02T10:36:17;5.67;;;3.80;;
982;SDS011;480;48.124;11.578;2023-07-02T10:38:45;5.63;;;4.77;;
982;SDS011;480;48.124;11.578;2023-07-02T10:41:22;6.60;;;4.97;;
982;SDS011;480;48.124;11.578;2023-07-02T10:43:50;5.80;;;5.20;;
982;SDS011;480;48.124;11.578;2023-07-02T10:46:20;6.07;;;4.80;;
982;SDS011;480;48.124;11.578;2023-07-02T10:48:51;7.47;;;5.17;;
982;SDS011;480;48.124;11.578;2023-07-02T10:51:19;7.27;;;5.33;;
982;SDS011;480;48.124;11.578;2023-07-02T10:53:46;5.80;;;4.50;;
982;SDS011;480;48.124;11.578;2023-07-02T10:56:24;9.20;;;5.40;;
982;SDS011;480;48.124;11.578;2023-07-02T10:58:51;5.93;;;5.40;;
982;SDS011;480;48.124;11.578;2023-07-02T11:01:22;5.53;;;4.80;;
982;SDS011;480;48.124;11.578;2023-07-02T11:03:55;5.40;;;4.90;;
982;SDS011;480;48.124;11.578;2023-07-02T11:06:23;5.80;;;5.20;;
982;SDS011;480;48.124;11.578;2023-07-02T11:08:50;7.23;;;4.90;;
982;SDS011;480;48.124;11.578;2023-07-02T11:11:19;5.63;;;5.13;;
982;SDS011;480;48.124;11.578;2023-07-02T11:13:48;7.07;;;5.43;;
982;SDS011;480;48.124;11.578;2023-07-02T11:16:17;6.13;;;4.97;;
982;SDS011;480;48.124;11.578;2023-07-02T11:18:47;5.90;;;5.40;;
982;SDS011;480;48.124;11.578;2023-07-02T11:21:16;7.40;;;6.27;;
982;SDS011;480;48.124;11.578;2023-07-02T11:23:43;5.60;;;5.10;;
982;SDS011;480;48.124;11.578;2023-07-02T11:26:10;7.00;;;5.13;;
982;SDS011;480;48.124;11.578;2023-07-02T11:28:46;7.97;;;5.80;;
982;SDS011;480;48.124;11.578;2023-07-02T11:31:26;6.00;;;5.40;;
982;SDS011;480;48.124;11.578;2023-07-02T11:33:53;7.40;;;5.67;;
982;SDS011;480;48.124;11.578;2023-07-02T11:36:20;9.60;;;6.23;;
982;SDS011;480;48.124;11.578;2023-07-02T11:38:50;8.10;;;6.70;;
982;SDS011;480;48.124;11.578;2023-07-02T11:41:18;7.77;;;6.47;;
982;SDS011;480;48.124;11.578;2023-07-02T11:43:45;9.60;;;6.60;;
982;SDS011;480;48.124;11.578;2023-07-02T11:46:14;6.50;;;5.90;;
982;SDS011;480;48.124;11.578;2023-07-02T11:48:41;6.77;;;5.03;;
982;SDS011;480;48.124;11.578;2023-07-02T11:51:08;7.10;;;6.40;;
982;SDS011;480;48.124;11.578;2023-07-02T11:53:35;6.07;;;5.47;;
982;SDS011;480;48.124;11.578;2023-07-02T11:56:02;7.37;;;6.67;;
982;SDS011;480;48.124;11.578;2023-07-02T11:58:30;8.30;;;6.50;;
982;SDS011;480;48.124;11.578;2023-07-02T12:00:57;6.90;;;6.30;;
982;SDS011;480;48.124;11.578;2023-07-02T12:03:26;8.10;;;7.30;;
982;SDS011;480;48.124;11.578;2023-07-02T12:05:53;7.90;;;6.90;;
982;SDS011;480;48.124;11.578;2023-07-02T12:08:20;7.37;;;6.10;;
982;SDS011;480;48.124;11.578;2023-07-02T12:10:47;7.47;;;6.00;;
982;SDS011;480;48.124;11.578;2023-07-02T12:13:14;9.00;;;7.40;;
982;SDS011;480;48.124;11.578;2023-07-02T12:15:41;7.20;;;5.83;;
982;SDS011;480;48.124;11.578;2023-07-02T12:18:08;7.70;;;6.80;;
982;SDS011;480;48.124;11.578;2023-07-02T12:20:37;10.20;;;7.50;;
982;SDS011;480;48.124;11.578;2023-07-02T12:23:05;7.93;;;7.00;;
982;SDS011;480;48.124;11.578;2023-07-02T12:25:32;8.03;;;6.50;;
982;SDS011;480;48.124;11.578;2023-07-02T12:27:59;7.40;;;6.63;;
982;SDS011;480;48.124;11.578;2023-07-02T12:30:26;10.43;;;8.43;;
982;SDS011;480;48.124;11.578;2023-07-02T12:32:53;10.37;;;7.47;;
982;SDS011;480;48.124;11.578;2023-07-02T12:35:20;10.00;;;8.30;;
982;SDS011;480;48.124;11.578;2023-07-02T12:37:49;8.57;;;6.93;;
982;SDS011;480;48.124;11.578;2023-07-02T12:40:17;9.70;;;7.10;;
982;SDS011;480;48.124;11.578;2023-07-02T12:42:45;10.90;;;7.73;;
982;SDS011;480;48.124;11.578;2023-07-02T12:45:14;8.80;;;7.37;;
982;SDS011;480;48.124;11.578;2023-07-02T12:47:42;10.70;;;8.60;;
982;SDS011;480;48.124;11.578;2023-07-02T12:50:09;12.80;;;9.00;;
982;SDS011;480;48.124;11.578;2023-07-02T12:52:37;9.83;;;8.93;;
982;SDS011;480;48.124;11.578;2023-07-02T12:55:05;9.77;;;8.67;;
982;SDS011;480;48.124;11.578;2023-07-02T12:57:33;9.00;;;8.10;;
982;SDS011;480;48.124;11.578;2023-07-02T13:00:01;10.07;;;8.30;;
982;SDS011;480;48.124;11.578;2023-07-02T13:02:30;10.70;;;9.37;;
982;SDS011;480;48.124;11.578;2023-07-02T13:04:57;11.07;;;8.37;;
982;SDS011;480;48.124;11.578;2023-07-02T13:07:24;15.10;;;9.23;;
982;SDS011;480;48.124;11.578;2023-07-02T13:09:53;12.83;;;10.70;;
982;SDS011;480;48.124;11.578;2023-07-02T13:12:21;9.40;;;8.40;;
982;SDS011;480;48.124;11.578;2023-07-02T13:14:48;11.53;;;10.43;;
982;SDS011;480;48.124;11.578;2023-07-02T13:17:15;11.00;;;9.17;;
982;SDS011;480;48.124;11.578;2023-07-02T13:19:42;11.50;;;8.60;;
982;SDS011;480;48.124;11.578;2023-07-02T13:22:09;11.80;;;9.43;;
982;SDS011;480;48.124;11.578;2023-07-02T13:24:36;12.10;;;9.40;;
982;SDS011;480;48.124;11.578;2023-07-02T13:27:06;12.37;;;9.43;;
982;SDS011;480;48.124;11.578;2023-07-02T13:29:39;11.50;;;9.80;;
982;SDS011;480;48.124;11.578;2023-07-02T13:32:07;12.40;;;9.47;;
982;SDS011;480;48.124;11.578;2023-07-02T13:34:34;10.00;;;8.93;;
982;SDS011;480;48.124;11.578;2023-07-02T13:37:01;10.73;;;8.60;;
982;SDS011;480;48.124;11.578;2023-07-02T13:39:28;10.00;;;8.67;;
982;SDS011;480;48.124;11.578;2023-07-02T13:41:55;15.43;;;9.80;;
982;SDS011;480;48.124;11.578;2023-07-02T13:44:22;11.27;;;9.00;;
982;SDS011;480;48.124;11.578;2023-07-02T13:46:51;10.10;;;8.87;;
982;SDS011;480;48.124;11.578;2023-07-02T13:49:18;10.63;;;8.73;;
982;SDS011;480;48.124;11.578;2023-07-02T13:51:46;13.10;;;10.37;;
982;SDS011;480;48.124;11.578;2023-07-02T13:54:14;13.73;;;11.07;;
982;SDS011;480;48.124;11.578;2023-07-02T13:56:43;11.20;;;9.97;;
982;SDS011;480;48.124;11.578;2023-07-02T13:59:12;14.30;;;10.70;;
982;SDS011;480;48.124;11.578;2023-07-02T14:01:41;15.50;;;10.37;;
982;SDS011;480;48.124;11.578;2023-07-02T14:04:08;14.20;;;10.73;;
982;SDS011;480;48.124;11.578;2023-07-02T14:06:36;14.93;;;10.70;;
982;SDS011;480;48.124;11.578;2023-07-02T14:09:03;14.13;;;10.00;;
982;SDS011;480;48.124;11.578;2023-07-02T14:11:31;13.50;;;10.87;;
982;SDS011;480;48.124;11.578;2023-07-02T14:14:00;12.80;;;9.83;;
982;SDS011;480;48.124;11.578;2023-07-02T14:16:29;11.47;;;9.57;;
982;SDS011;480;48.124;11.578;2023-07-02T14:18:56;11.67;;;10.43;;
982;SDS011;480;48.124;11.578;2023-07-02T14:21:23;15.03;;;11.20;;
982;SDS011;480;48.124;11.578;2023-07-02T14:23:50;13.40;;;11.10;;
982;SDS011;480;48.124;11.578;2023-07-02T14:26:17;12.90;;;9.70;;
982;SDS011;480;48.124;11.578;2023-07-02T14:28:44;15.20;;;11.73;;
982;SDS011;480;48.124;11.578;2023-07-02T14:31:11;13.93;;;11.77;;
982;SDS011;480;48.124;11.578;2023-07-02T14:33:39;13.27;;;11.43;;
982;SDS011;480;48.124;11.578;2023-07-02T14:36:07;14.23;;;11.83;;
982;SDS011;480;48.124;11.578;2023-07-02T14:38:34;13.63;;;11.73;;
982;SDS011;480;48.124;11.578;2023-07-02T14:41:01;13.97;;;12.00;;
982;SDS011;480;48.124;11.578;2023-07-02T14:43:30;14.70;;;11.97;;
982;SDS011;480;48.124;11.578;2023-07-02T14:45:58;14.43;;;11.43;;
982;SDS011;480;48.124;11.578;2023-07-02T14:48:26;18.17;;;12.30;;
982;SDS011;480;48.124;11.578;2023-07-02T14:50:55;16.03;;;11.60;;
982;SDS011;480;48.124;11.578;2023-07-02T14:53:24;16.40;;;11.80;;
982;SDS011;480;48.124;11.578;2023-07-02T14:55:53;17.50;;;12.30;;
982;SDS011;480;48.124;11.578;2023-07-02T14:58:21;18.67;;;13.03;;
982;SDS011;480;48.124;11.578;2023-07-02T15:00:49;13.53;;;10.93;;
982;SDS011;480;48.124;11.578;2023-07-02T15:03:19;14.93;;;11.97;;
982;SDS011;480;48.124;11.578;2023-07-02T15:05:48;16.67;;;11.53;;
982;SDS011;480;48.124;11.578;2023-07-02T15:08:16;13.70;;;10.90;;
982;SDS011;480;48.124;11.578;2023-07-02T15:10:45;13.77;;;10.90;;
982;SDS011;480;48.124;11.578;2023-07-02T15:13:13;17.53;;;11.57;;
982;SDS011;480;48.124;11.578;2023-07-02T15:15:42;12.13;;;10.00;;
982;SDS011;480;48.124;11.578;2023-07-02T15:18:10;16.77;;;11.20;;
982;SDS011;480;48.124;11.578;2023-07-02T15:20:38;13.80;;;10.27;;
982;SDS011;480;48.124;11.578;2023-07-02T15:23:05;14.23;;;11.10;;
982;SDS011;480;48.124;11.578;2023-07-02T15:25:34;13.97;;;10.87;;
982;SDS011;480;48.124;11.578;2023-07-02T15:28:01;13.97;;;10.57;;
982;SDS011;480;48.124;11.578;2023-07-02T15:30:28;12.33;;;10.80;;